createdAt,value
2023-03-02T00:01:55.791Z,19.37
2023-03-02T00:04:42.370Z,19.80
2023-03-02T00:07:10.931Z,19.70
2023-03-02T00:09:38.720Z,19.13
2023-03-02T00:12:09.879Z,18.60
2023-03-02T00:14:38.133Z,18.40
2023-03-02T00:17:08.129Z,18.93
2023-03-02T00:19:36.594Z,18.40
2023-03-02T00:22:04.404Z,19.97
2023-03-02T00:24:31.830Z,18.60
2023-03-02T00:26:59.215Z,19.27
2023-03-02T00:29:26.683Z,19.27
2023-03-02T00:31:54.850Z,18.27
2023-03-02T00:34:22.282Z,17.13
2023-03-02T00:36:49.694Z,19.87
2023-03-02T00:39:20.356Z,19.40
2023-03-02T00:41:48.486Z,18.07
2023-03-02T00:44:17.874Z,17.73
2023-03-02T00:46:45.905Z,19.60
2023-03-02T00:49:13.360Z,17.83
2023-03-02T00:51:40.785Z,17.30
2023-03-02T00:54:08.181Z,17.20
2023-03-02T00:56:35.484Z,17.13
2023-03-02T00:59:06.986Z,17.50
2023-03-02T01:01:34.424Z,15.73
2023-03-02T01:04:01.772Z,17.43
2023-03-02T01:06:29.292Z,15.50
2023-03-02T01:08:56.774Z,16.60
2023-03-02T01:11:24.161Z,15.80
2023-03-02T01:13:51.563Z,15.10
2023-03-02T01:16:18.952Z,14.20
2023-03-02T01:18:46.616Z,15.33
2023-03-02T01:21:15.882Z,14.63
2023-03-02T01:23:43.466Z,14.43
2023-03-02T01:26:11.201Z,13.40
2023-03-02T01:28:38.642Z,14.60
2023-03-02T01:31:06.231Z,13.73
2023-03-02T01:33:33.762Z,14.83
2023-03-02T01:36:01.232Z,14.33
2023-03-02T01:38:29.038Z,13.97
2023-03-02T01:40:56.585Z,14.47
2023-03-02T01:43:24.013Z,13.57
2023-03-02T01:46:05.768Z,14.20
2023-03-02T01:48:35.969Z,15.03
2023-03-02T01:51:03.906Z,14.60
2023-03-02T01:53:32.955Z,13.20
2023-03-02T01:56:01.596Z,13.37
2023-03-02T01:58:29.711Z,13.07
2023-03-02T02:00:57.393Z,13.37
2023-03-02T02:03:27.095Z,13.60
2023-03-02T02:06:12.930Z,15.83
2023-03-02T02:08:40.792Z,15.73
2023-03-02T02:11:08.235Z,14.60
2023-03-02T02:13:35.778Z,15.57
2023-03-02T02:16:03.232Z,14.27
2023-03-02T02:18:30.656Z,14.77
2023-03-02T02:20:58.177Z,13.30
2023-03-02T02:23:31.292Z,14.33
2023-03-02T02:26:18.575Z,13.67
2023-03-02T02:28:51.424Z,12.40
2023-03-02T02:31:22.556Z,15.20
2023-03-02T02:33:55.495Z,16.20
2023-03-02T02:36:34.119Z,14.67
2023-03-02T02:39:03.690Z,15.60
2023-03-02T02:41:34.690Z,14.20
2023-03-02T02:44:02.231Z,15.93
2023-03-02T02:46:30.112Z,13.63
2023-03-02T02:48:57.783Z,13.70
2023-03-02T02:51:28.427Z,12.90
2023-03-02T02:54:00.017Z,12.50
2023-03-02T02:56:35.429Z,13.60
2023-03-02T02:59:23.122Z,11.83
2023-03-02T03:01:51.688Z,11.83
2023-03-02T03:04:20.562Z,11.07
2023-03-02T03:06:52.951Z,9.83
2023-03-02T03:09:20.699Z,8.50
2023-03-02T03:11:50.635Z,8.23
2023-03-02T03:14:19.920Z,8.17
2023-03-02T03:16:48.486Z,9.47
2023-03-02T03:19:21.236Z,10.43
2023-03-02T03:21:50.591Z,9.80
2023-03-02T03:24:18.378Z,8.83
2023-03-02T03:26:46.151Z,7.90
2023-03-02T03:29:14.543Z,9.73
2023-03-02T03:31:42.043Z,9.00
2023-03-02T03:34:10.096Z,8.87
2023-03-02T03:36:38.533Z,8.67
2023-03-02T03:39:06.448Z,8.93
2023-03-02T03:41:34.019Z,9.40
2023-03-02T03:44:01.478Z,8.17
2023-03-02T03:46:30.168Z,9.67
2023-03-02T03:48:57.802Z,8.57
2023-03-02T03:51:25.865Z,9.20
2023-03-02T03:54:02.675Z,7.80
2023-03-02T03:56:31.648Z,6.30
2023-03-02T03:59:06.927Z,6.57
2023-03-02T04:01:38.088Z,5.60
2023-03-02T04:04:07.007Z,6.00
2023-03-02T04:06:37.557Z,7.73
2023-03-02T04:09:05.883Z,9.17
2023-03-02T04:11:34.017Z,8.63
2023-03-02T04:14:01.476Z,8.23
2023-03-02T04:16:29.211Z,7.83
2023-03-02T04:18:57.062Z,6.87
2023-03-02T04:21:24.632Z,7.60
2023-03-02T04:23:52.017Z,9.57
2023-03-02T04:26:19.495Z,9.17
2023-03-02T04:28:51.032Z,9.47
2023-03-02T04:31:18.713Z,9.30
2023-03-02T04:33:46.380Z,8.43
2023-03-02T04:36:15.863Z,8.10
2023-03-02T04:38:43.446Z,9.10
2023-03-02T04:41:10.851Z,9.40
2023-03-02T04:43:38.375Z,8.87
2023-03-02T04:46:05.926Z,9.70
2023-03-02T04:48:33.375Z,8.47
2023-03-02T04:51:00.700Z,7.33
2023-03-02T04:53:28.011Z,6.30
2023-03-02T04:55:55.385Z,8.00
2023-03-02T04:58:22.857Z,8.67
2023-03-02T05:00:50.252Z,6.57
2023-03-02T05:03:17.639Z,6.03
2023-03-02T05:05:44.956Z,4.93
2023-03-02T05:08:12.568Z,7.23
2023-03-02T05:10:39.894Z,7.13
2023-03-02T05:13:07.472Z,7.30
2023-03-02T05:15:40.220Z,7.20
2023-03-02T05:18:09.151Z,5.87
2023-03-02T05:20:37.045Z,5.43
2023-03-02T05:23:06.252Z,7.03
2023-03-02T05:25:35.245Z,7.80
2023-03-02T05:28:02.975Z,8.53
2023-03-02T05:30:32.681Z,8.33
2023-03-02T05:33:00.107Z,8.10
2023-03-02T05:35:27.430Z,8.80
2023-03-02T05:37:54.881Z,9.40
2023-03-02T05:40:22.278Z,9.60
2023-03-02T05:42:50.838Z,8.40
2023-03-02T05:45:25.997Z,7.87
2023-03-02T05:47:53.462Z,7.40
2023-03-02T05:50:21.063Z,6.83
2023-03-02T05:52:48.614Z,6.37
2023-03-02T05:55:16.715Z,6.43
2023-03-02T05:57:44.477Z,6.90
2023-03-02T06:00:12.805Z,7.47
2023-03-02T06:02:41.059Z,9.07
2023-03-02T06:05:16.102Z,8.93
2023-03-02T06:07:46.706Z,8.13
2023-03-02T06:10:14.736Z,6.93
2023-03-02T06:12:42.084Z,6.10
2023-03-02T06:15:10.380Z,6.33
2023-03-02T06:17:37.881Z,7.10
2023-03-02T06:20:10.724Z,7.20
2023-03-02T06:22:41.282Z,6.07
2023-03-02T06:25:10.021Z,5.77
2023-03-02T06:27:38.571Z,5.00
2023-03-02T06:30:06.886Z,5.37
2023-03-02T06:32:35.612Z,4.90
2023-03-02T06:35:03.604Z,6.67
2023-03-02T06:37:31.669Z,6.90
2023-03-02T06:39:59.843Z,6.60
2023-03-02T06:42:28.245Z,5.20
2023-03-02T06:44:55.678Z,5.40
2023-03-02T06:47:23.610Z,4.57
2023-03-02T06:49:51.046Z,4.30
2023-03-02T06:52:20.686Z,4.03
2023-03-02T06:54:48.125Z,6.43
2023-03-02T06:57:15.471Z,6.13
2023-03-02T06:59:42.850Z,5.93
2023-03-02T07:02:11.326Z,5.80
2023-03-02T07:04:38.681Z,5.87
2023-03-02T07:07:06.452Z,6.17
2023-03-02T07:09:34.700Z,5.43
2023-03-02T07:12:02.128Z,5.67
2023-03-02T07:14:29.486Z,6.10
2023-03-02T07:16:57.661Z,5.77
2023-03-02T07:19:25.304Z,5.27
2023-03-02T07:21:52.685Z,5.20
2023-03-02T07:24:23.123Z,4.77
2023-03-02T07:26:50.602Z,4.03
2023-03-02T07:29:20.928Z,3.83
2023-03-02T07:31:48.750Z,3.33
2023-03-02T07:34:16.526Z,4.27
2023-03-02T07:36:43.880Z,3.97
2023-03-02T07:39:11.162Z,4.10
2023-03-02T07:41:38.427Z,4.43
2023-03-02T07:44:06.135Z,4.33
2023-03-02T07:46:33.584Z,4.53
2023-03-02T07:49:01.331Z,5.47
2023-03-02T07:51:29.008Z,4.77
2023-03-02T07:53:56.389Z,4.20
2023-03-02T07:56:23.723Z,4.23
2023-03-02T07:58:51.165Z,3.93
2023-03-02T08:01:18.564Z,4.27
2023-03-02T08:03:46.121Z,4.23
2023-03-02T08:06:14.003Z,3.90
2023-03-02T08:08:41.286Z,4.27
2023-03-02T08:11:10.372Z,4.37
2023-03-02T08:13:38.488Z,3.70
2023-03-02T08:16:10.482Z,3.70
2023-03-02T08:18:38.535Z,3.83
2023-03-02T08:21:12.210Z,3.53
2023-03-02T08:23:39.799Z,3.10
2023-03-02T08:26:07.373Z,3.13
2023-03-02T08:28:34.805Z,2.30
2023-03-02T08:31:02.864Z,2.00
2023-03-02T08:33:31.069Z,1.73
2023-03-02T08:36:00.211Z,1.60
2023-03-02T08:38:28.370Z,2.33
2023-03-02T08:40:55.700Z,1.53
2023-03-02T08:43:23.936Z,2.00
2023-03-02T08:45:55.038Z,1.80
2023-03-02T08:48:26.893Z,1.83
2023-03-02T08:51:05.084Z,1.67
2023-03-02T08:53:33.879Z,1.80
2023-03-02T08:56:01.846Z,0.80
2023-03-02T08:58:29.907Z,1.27
2023-03-02T09:00:57.233Z,1.60
2023-03-02T09:03:24.604Z,2.00
2023-03-02T09:05:51.884Z,2.23
2023-03-02T09:08:19.245Z,1.73
2023-03-02T09:10:46.571Z,1.53
2023-03-02T09:13:14.003Z,1.57
2023-03-02T09:15:41.254Z,1.27
2023-03-02T09:18:08.813Z,1.40
2023-03-02T09:20:36.322Z,1.17
2023-03-02T09:23:03.630Z,1.07
2023-03-02T09:25:30.923Z,0.97
2023-03-02T09:27:58.197Z,1.33
2023-03-02T09:30:25.745Z,1.00
2023-03-02T09:32:53.308Z,1.10
2023-03-02T09:35:20.792Z,0.87
2023-03-02T09:37:48.115Z,1.00
2023-03-02T09:40:25.977Z,0.30
2023-03-02T09:42:56.093Z,0.43
2023-03-02T09:45:42.223Z,0.30
2023-03-02T09:48:28.261Z,0.60
2023-03-02T09:51:15.967Z,0.60
2023-03-02T09:53:48.442Z,0.40
2023-03-02T09:56:17.676Z,0.40
2023-03-02T09:58:49.318Z,0.47
2023-03-02T10:01:17.804Z,0.40
2023-03-02T10:03:51.449Z,0.40
2023-03-02T10:06:18.979Z,0.30
2023-03-02T10:08:46.536Z,0.30
2023-03-02T10:11:32.310Z,0.50
2023-03-02T10:14:04.445Z,0.40
2023-03-02T10:16:47.406Z,0.40
2023-03-02T10:19:20.532Z,0.53
2023-03-02T10:21:49.924Z,0.27
2023-03-02T10:24:20.345Z,0.30
2023-03-02T10:26:48.880Z,0.30
2023-03-02T10:29:31.584Z,0.43
2023-03-02T10:32:25.305Z,0.40
2023-03-02T10:34:53.576Z,0.40
2023-03-02T10:37:23.162Z,0.50
2023-03-02T10:39:50.641Z,0.40
2023-03-02T10:42:21.270Z,0.20
2023-03-02T10:44:52.781Z,0.40
2023-03-02T10:47:27.877Z,0.40
2023-03-02T10:49:56.201Z,0.50
2023-03-02T10:52:26.476Z,0.33
2023-03-02T10:55:05.208Z,0.57
2023-03-02T10:57:37.116Z,0.40
2023-03-02T11:00:06.771Z,0.40
2023-03-02T11:02:36.001Z,0.50
2023-03-02T11:05:18.651Z,0.33
2023-03-02T11:08:12.465Z,0.30
2023-03-02T11:10:42.046Z,0.60
2023-03-02T11:13:20.731Z,0.73
2023-03-02T11:15:48.972Z,0.40
2023-03-02T11:18:24.453Z,0.43
2023-03-02T11:20:53.603Z,0.50
2023-03-02T11:23:23.989Z,0.67
2023-03-02T11:26:14.725Z,0.50
2023-03-02T11:28:52.246Z,0.40
2023-03-02T11:31:23.518Z,1.30
2023-03-02T11:34:15.604Z,0.50
2023-03-02T11:36:58.885Z,0.60
2023-03-02T11:39:29.069Z,0.60
2023-03-02T11:41:56.799Z,0.60
2023-03-02T11:44:27.386Z,0.40
2023-03-02T11:46:59.293Z,0.60
2023-03-02T11:49:30.419Z,0.57
2023-03-02T11:51:59.376Z,0.50
2023-03-02T11:54:29.095Z,0.70
2023-03-02T11:56:56.807Z,0.60
2023-03-02T11:59:27.534Z,1.10
2023-03-02T12:01:57.324Z,0.70
2023-03-02T12:04:35.637Z,1.30
2023-03-02T12:07:04.174Z,0.90
2023-03-02T12:09:35.212Z,1.03
2023-03-02T12:12:21.125Z,0.40
2023-03-02T12:14:48.688Z,0.73
2023-03-02T12:17:28.393Z,0.70
2023-03-02T12:20:11.011Z,0.83
2023-03-02T12:22:39.049Z,0.60
2023-03-02T12:25:21.663Z,0.70
2023-03-02T12:27:50.290Z,0.77
2023-03-02T12:30:24.653Z,0.80
2023-03-02T12:33:04.304Z,0.60
2023-03-02T12:35:33.504Z,0.80
2023-03-02T12:38:15.871Z,0.90
2023-03-02T12:40:58.589Z,0.93
2023-03-02T12:43:26.965Z,1.00
2023-03-02T12:46:03.673Z,0.90
2023-03-02T12:48:37.245Z,0.90
2023-03-02T12:51:06.097Z,0.97
2023-03-02T12:53:34.094Z,1.20
2023-03-02T12:56:04.628Z,1.20
2023-03-02T12:58:33.787Z,0.93
2023-03-02T13:01:02.433Z,1.07
2023-03-02T13:03:31.248Z,0.90
2023-03-02T13:06:03.326Z,1.50
2023-03-02T13:08:31.467Z,1.00
2023-03-02T13:11:01.311Z,1.10
2023-03-02T13:13:34.435Z,0.90
2023-03-02T13:16:03.406Z,0.80
2023-03-02T13:18:32.293Z,0.80
2023-03-02T13:21:00.817Z,1.00
2023-03-02T13:23:29.480Z,0.97
2023-03-02T13:25:58.201Z,0.80
2023-03-02T13:28:34.205Z,0.70
2023-03-02T13:31:17.668Z,1.07
2023-03-02T13:33:50.467Z,0.90
2023-03-02T13:36:25.262Z,0.80
2023-03-02T13:38:54.608Z,0.90
2023-03-02T13:41:26.085Z,1.10
2023-03-02T13:43:53.686Z,1.30
2023-03-02T13:46:21.035Z,0.90
2023-03-02T13:49:13.956Z,0.90
2023-03-02T13:51:46.124Z,1.20
2023-03-02T13:54:17.659Z,1.00
2023-03-02T13:56:45.486Z,1.00
2023-03-02T13:59:17.002Z,1.23
2023-03-02T14:01:44.891Z,1.20
2023-03-02T14:04:13.103Z,1.17
2023-03-02T14:06:40.708Z,1.00
2023-03-02T14:09:08.143Z,1.77
2023-03-02T14:11:46.084Z,1.23
2023-03-02T14:14:15.139Z,1.37
2023-03-02T14:16:42.500Z,1.10
2023-03-02T14:19:11.527Z,0.90
2023-03-02T14:21:38.864Z,1.00
2023-03-02T14:24:06.830Z,1.30
2023-03-02T14:26:37.462Z,1.10
2023-03-02T14:29:13.678Z,1.10
2023-03-02T14:31:41.083Z,1.43
2023-03-02T14:34:12.406Z,1.03
2023-03-02T14:36:40.040Z,1.30
2023-03-02T14:39:12.530Z,1.27
2023-03-02T14:41:53.018Z,1.20
2023-03-02T14:44:21.774Z,1.30
2023-03-02T14:46:53.188Z,1.53
2023-03-02T14:49:21.445Z,1.40
2023-03-02T14:52:09.405Z,1.13
2023-03-02T14:54:39.399Z,1.33
2023-03-02T14:57:09.441Z,1.60
2023-03-02T14:59:36.777Z,1.30
2023-03-02T15:02:15.714Z,1.40
2023-03-02T15:04:55.024Z,1.30
2023-03-02T15:07:23.930Z,1.50
2023-03-02T15:09:51.415Z,1.33
2023-03-02T15:12:18.851Z,1.40
2023-03-02T15:14:46.293Z,1.43
2023-03-02T15:17:13.736Z,1.40
2023-03-02T15:19:41.106Z,1.40
2023-03-02T15:22:08.532Z,1.50
2023-03-02T15:24:35.932Z,1.80
2023-03-02T15:27:03.361Z,1.30
2023-03-02T15:29:30.730Z,1.60
2023-03-02T15:31:58.306Z,1.80
2023-03-02T15:34:25.728Z,1.90
2023-03-02T15:36:53.163Z,1.10
2023-03-02T15:39:20.549Z,1.33
2023-03-02T15:41:47.928Z,1.40
2023-03-02T15:44:21.841Z,1.60
2023-03-02T15:46:50.249Z,1.40
2023-03-02T15:49:22.892Z,2.07
2023-03-02T15:51:52.145Z,1.30
2023-03-02T15:54:19.861Z,1.40
2023-03-02T15:56:52.159Z,1.87
2023-03-02T15:59:23.605Z,1.13
2023-03-02T16:01:50.896Z,1.37
2023-03-02T16:04:18.370Z,1.60
2023-03-02T16:06:46.128Z,1.77
2023-03-02T16:09:13.680Z,1.50
2023-03-02T16:11:41.412Z,1.30
2023-03-02T16:14:08.938Z,1.00
2023-03-02T16:16:36.752Z,1.47
2023-03-02T16:19:04.368Z,1.10
2023-03-02T16:21:31.820Z,1.10
2023-03-02T16:24:04.026Z,1.40
2023-03-02T16:26:32.775Z,1.30
2023-03-02T16:29:00.458Z,1.20
2023-03-02T16:31:28.752Z,2.13
2023-03-02T16:33:57.691Z,2.30
2023-03-02T16:36:25.097Z,1.30
2023-03-02T16:38:53.020Z,1.93
2023-03-02T16:41:21.809Z,1.40
2023-03-02T16:43:53.587Z,1.30
2023-03-02T16:46:21.543Z,0.70
2023-03-02T16:48:49.572Z,1.33
2023-03-02T16:51:17.649Z,0.93
2023-03-02T16:53:45.467Z,1.20
2023-03-02T16:56:13.332Z,1.67
2023-03-02T16:58:41.618Z,1.10
2023-03-02T17:01:10.738Z,1.10
2023-03-02T17:03:38.412Z,1.10
2023-03-02T17:06:06.342Z,1.20
2023-03-02T17:08:36.452Z,1.23
2023-03-02T17:11:04.251Z,1.00
2023-03-02T17:13:31.588Z,1.33
2023-03-02T17:15:59.451Z,1.60
2023-03-02T17:18:28.051Z,1.30
2023-03-02T17:20:56.289Z,8.43
2023-03-02T17:23:24.004Z,16.07
2023-03-02T17:25:51.461Z,15.00
2023-03-02T17:28:18.925Z,15.60
2023-03-02T17:30:46.822Z,16.50
2023-03-02T17:33:14.292Z,18.50
2023-03-02T17:35:42.737Z,17.37
2023-03-02T17:38:10.278Z,17.37
2023-03-02T17:40:37.589Z,17.87
2023-03-02T17:43:04.923Z,17.83
2023-03-02T17:45:32.306Z,19.17
2023-03-02T17:48:00.281Z,18.93
2023-03-02T17:50:30.484Z,18.00
2023-03-02T17:52:57.962Z,18.40
2023-03-02T17:55:25.331Z,19.47
2023-03-02T17:57:52.696Z,19.03
2023-03-02T18:00:21.824Z,18.23
2023-03-02T18:02:49.381Z,19.00
2023-03-02T18:05:16.889Z,19.07
2023-03-02T18:07:44.374Z,18.13
2023-03-02T18:10:12.136Z,18.83
2023-03-02T18:12:39.858Z,18.50
2023-03-02T18:15:07.805Z,19.17
2023-03-02T18:17:35.221Z,17.90
2023-03-02T18:20:02.587Z,17.43
2023-03-02T18:22:29.985Z,18.80
2023-03-02T18:24:57.371Z,16.97
2023-03-02T18:27:24.890Z,17.53
2023-03-02T18:29:52.348Z,18.30
2023-03-02T18:32:20.058Z,18.07
2023-03-02T18:34:47.508Z,17.80
2023-03-02T18:37:14.849Z,16.03
2023-03-02T18:39:42.283Z,16.93
2023-03-02T18:42:12.236Z,17.23
2023-03-02T18:44:40.059Z,18.73
2023-03-02T18:47:07.759Z,16.93
2023-03-02T18:49:35.326Z,16.13
2023-03-02T18:52:06.973Z,16.93
2023-03-02T18:54:34.371Z,17.13
2023-03-02T18:57:01.792Z,16.83
2023-03-02T18:59:29.703Z,16.20
2023-03-02T19:01:57.686Z,16.20
2023-03-02T19:04:26.721Z,16.67
2023-03-02T19:06:56.279Z,16.43
2023-03-02T19:09:24.407Z,18.07
2023-03-02T19:11:51.917Z,16.97
2023-03-02T19:14:19.658Z,16.47
2023-03-02T19:16:47.022Z,16.80
2023-03-02T19:19:14.323Z,16.30
2023-03-02T19:21:41.772Z,15.13
2023-03-02T19:24:09.435Z,14.80
2023-03-02T19:26:37.044Z,15.53
2023-03-02T19:29:04.698Z,14.13
2023-03-02T19:31:33.390Z,14.87
2023-03-02T19:34:00.926Z,14.20
2023-03-02T19:36:28.408Z,15.63
2023-03-02T19:38:55.824Z,16.60
2023-03-02T19:41:23.411Z,17.17
2023-03-02T19:43:51.184Z,15.53
2023-03-02T19:46:19.089Z,17.10
2023-03-02T19:48:46.583Z,13.90
2023-03-02T19:51:15.204Z,12.50
2023-03-02T19:53:43.628Z,12.77
2023-03-02T19:56:14.400Z,12.87
2023-03-02T19:58:47.779Z,13.60
2023-03-02T20:01:17.287Z,13.00
2023-03-02T20:03:46.449Z,13.50
2023-03-02T20:06:13.784Z,12.23
2023-03-02T20:08:41.245Z,13.40
2023-03-02T20:11:08.800Z,13.63
2023-03-02T20:13:36.179Z,14.33
2023-03-02T20:16:04.012Z,15.67
2023-03-02T20:18:31.443Z,13.97
2023-03-02T20:20:59.181Z,12.30
2023-03-02T20:23:26.822Z,10.13
2023-03-02T20:25:54.283Z,11.40
2023-03-02T20:28:22.978Z,11.83
2023-03-02T20:30:54.923Z,11.97
2023-03-02T20:33:23.630Z,12.67
2023-03-02T20:35:51.181Z,12.47
2023-03-02T20:38:39.606Z,13.27
2023-03-02T20:41:08.152Z,13.90
2023-03-02T20:43:35.901Z,13.20
2023-03-02T20:46:03.748Z,13.07
2023-03-02T20:48:31.377Z,12.27
2023-03-02T20:50:59.083Z,12.10
2023-03-02T20:53:26.529Z,16.20
2023-03-02T20:55:54.129Z,15.00
2023-03-02T20:58:21.722Z,15.43
2023-03-02T21:00:49.197Z,15.63
2023-03-02T21:03:16.647Z,16.80
2023-03-02T21:05:44.840Z,16.33
2023-03-02T21:08:14.895Z,17.07
2023-03-02T21:10:43.503Z,15.37
2023-03-02T21:13:12.043Z,14.67
2023-03-02T21:15:41.282Z,15.70
2023-03-02T21:18:08.730Z,13.93
2023-03-02T21:20:36.310Z,12.37
2023-03-02T21:23:04.368Z,12.03
2023-03-02T21:25:32.472Z,12.10
2023-03-02T21:28:00.362Z,13.07
2023-03-02T21:30:29.664Z,12.23
2023-03-02T21:32:57.500Z,13.73
2023-03-02T21:35:25.024Z,14.60
2023-03-02T21:38:11.159Z,16.97
2023-03-02T21:40:42.133Z,15.60
2023-03-02T21:43:09.863Z,14.37
2023-03-02T21:45:37.535Z,14.73
2023-03-02T21:48:05.278Z,13.20
2023-03-02T21:50:34.267Z,14.87
2023-03-02T21:53:01.976Z,14.87
2023-03-02T21:55:30.510Z,14.90
2023-03-02T21:57:58.360Z,16.60
2023-03-02T22:00:27.582Z,15.00
2023-03-02T22:02:54.949Z,14.63
2023-03-02T22:05:22.446Z,14.73
2023-03-02T22:07:49.814Z,14.87
2023-03-02T22:10:29.134Z,14.93
2023-03-02T22:12:58.527Z,15.13
2023-03-02T22:15:28.181Z,14.57
2023-03-02T22:17:56.706Z,13.80
2023-03-02T22:20:24.316Z,15.10
2023-03-02T22:22:53.008Z,15.50
2023-03-02T22:25:20.741Z,14.70
2023-03-02T22:27:48.376Z,15.40
2023-03-02T22:30:23.612Z,13.80
2023-03-02T22:32:51.153Z,14.20
2023-03-02T22:35:28.143Z,14.73
2023-03-02T22:38:00.369Z,12.63
2023-03-02T22:40:32.251Z,13.77
2023-03-02T22:43:11.172Z,14.03
2023-03-02T22:45:39.840Z,13.33
2023-03-02T22:48:26.329Z,14.47
2023-03-02T22:50:53.848Z,14.23
2023-03-02T22:53:27.270Z,14.33
2023-03-02T22:55:55.838Z,15.80
2023-03-02T22:58:30.931Z,15.83
2023-03-02T23:01:02.301Z,15.47
2023-03-02T23:03:29.651Z,16.27
2023-03-02T23:05:57.032Z,15.57
2023-03-02T23:08:25.980Z,15.50
2023-03-02T23:10:54.846Z,15.10
2023-03-02T23:13:25.562Z,17.10
2023-03-02T23:15:54.435Z,15.73
2023-03-02T23:18:21.850Z,17.27
2023-03-02T23:20:49.576Z,16.03
2023-03-02T23:23:17.467Z,16.70
2023-03-02T23:25:44.822Z,15.13
2023-03-02T23:28:12.217Z,16.40
2023-03-02T23:30:39.776Z,16.20
2023-03-02T23:33:07.541Z,15.37
2023-03-02T23:35:35.237Z,15.37
2023-03-02T23:38:02.608Z,15.30
2023-03-02T23:40:30.213Z,15.27
2023-03-02T23:42:57.767Z,13.43
2023-03-02T23:45:26.487Z,15.10
2023-03-02T23:47:53.842Z,16.27
2023-03-02T23:50:21.240Z,15.80
2023-03-02T23:52:49.470Z,16.43
2023-03-02T23:55:16.960Z,15.90
2023-03-02T23:57:44.240Z,15.80
